Terminal Aerodrome Forecast
Issued by NWS St Louis, MO

Home | Current Version | Previous Version | Text Only | Print | Product List | Glossary On
Versions: 1 2 3 4 5 6 7 8 9 10 11 12 13 14 15 16 17 18 19 20 21 22 23 24 25 26 27 28 29
000
FTUS43 KLSX 202000 AAB
TAFSTL
TAF AMD
KSTL 202001Z 2020/2124 07010KT 6SM -RA BR OVC015
      TEMPO 2020/2021 2SM RA BR
     FM202100 04010KT 6SM BR BKN015 OVC030
     FM210300 35005KT P6SM OVC007
     FM211400 32008KT P6SM BKN020
     FM211800 32008KT P6SM BKN035=

USA.gov is the U.S. government's official web portal to all federal, state and local government web resources and services.